createdAt,value
2018-07-16T00:00:26.566Z,17.90
2018-07-16T00:02:55.012Z,17.80
2018-07-16T00:05:23.425Z,17.70
2018-07-16T00:07:51.823Z,17.70
2018-07-16T00:10:20.924Z,17.60
2018-07-16T00:12:49.325Z,17.50
2018-07-16T00:15:17.741Z,17.50
2018-07-16T00:17:46.264Z,17.40
2018-07-16T00:20:14.859Z,17.30
2018-07-16T00:22:43.296Z,17.30
2018-07-16T00:25:11.829Z,17.20
2018-07-16T00:27:40.236Z,17.10
2018-07-16T00:30:08.755Z,17.00
2018-07-16T00:32:37.120Z,16.90
2018-07-16T00:35:05.577Z,16.90
2018-07-16T00:37:34.122Z,16.90
2018-07-16T00:40:02.541Z,16.80
2018-07-16T00:42:30.940Z,16.80
2018-07-16T00:44:59.432Z,16.80
2018-07-16T00:47:27.810Z,16.80
2018-07-16T00:49:56.224Z,16.90
2018-07-16T00:52:24.764Z,16.90
2018-07-16T00:54:53.247Z,16.90
2018-07-16T00:57:21.713Z,16.90
2018-07-16T00:59:50.212Z,17.00
2018-07-16T01:02:18.592Z,16.90
2018-07-16T01:04:47.108Z,17.00
2018-07-16T01:07:15.496Z,17.00
2018-07-16T01:09:44.824Z,16.90
2018-07-16T01:12:13.431Z,16.80
2018-07-16T01:14:41.836Z,16.70
2018-07-16T01:17:10.228Z,16.70
2018-07-16T01:19:38.701Z,16.60
2018-07-16T01:22:07.144Z,16.60
2018-07-16T01:24:35.540Z,16.50
2018-07-16T01:27:03.954Z,16.50
2018-07-16T01:29:32.336Z,16.40
2018-07-16T01:32:00.700Z,16.30
2018-07-16T01:34:29.096Z,16.30
2018-07-16T01:36:57.492Z,16.10
2018-07-16T01:39:25.875Z,16.00
2018-07-16T01:41:54.260Z,16.00
2018-07-16T01:44:22.667Z,16.00
2018-07-16T01:46:51.076Z,16.00
2018-07-16T01:49:19.457Z,16.00
2018-07-16T01:51:47.875Z,15.90
2018-07-16T01:54:16.259Z,15.80
2018-07-16T01:56:44.658Z,15.70
2018-07-16T01:59:13.032Z,15.70
2018-07-16T02:01:41.448Z,15.60
2018-07-16T02:04:09.853Z,15.50
2018-07-16T02:06:38.246Z,15.50
2018-07-16T02:09:06.761Z,15.50
2018-07-16T02:11:35.146Z,15.50
2018-07-16T02:14:03.601Z,15.50
2018-07-16T02:16:31.972Z,15.50
2018-07-16T02:19:00.384Z,15.50
2018-07-16T02:21:28.792Z,15.50
2018-07-16T02:23:57.200Z,15.30
2018-07-16T02:26:25.609Z,15.00
2018-07-16T02:28:53.984Z,14.80
2018-07-16T02:31:22.368Z,14.70
2018-07-16T02:33:50.764Z,14.60
2018-07-16T02:36:19.174Z,14.50
2018-07-16T02:38:47.801Z,14.50
2018-07-16T02:41:16.218Z,14.30
2018-07-16T02:43:44.601Z,14.30
2018-07-16T02:46:13.032Z,14.40
2018-07-16T02:48:41.423Z,14.40
2018-07-16T02:51:09.817Z,14.50
2018-07-16T02:53:38.228Z,14.50
2018-07-16T02:56:06.644Z,14.50
2018-07-16T02:58:35.108Z,14.50
2018-07-16T03:01:03.540Z,14.50
2018-07-16T03:03:32.188Z,14.50
2018-07-16T03:06:00.587Z,14.50
2018-07-16T03:08:29.066Z,14.60
2018-07-16T03:10:57.465Z,14.50
2018-07-16T03:13:25.844Z,14.40
2018-07-16T03:15:54.233Z,14.30
2018-07-16T03:18:22.629Z,14.30
2018-07-16T03:20:51.013Z,14.30
2018-07-16T03:23:19.424Z,14.40
2018-07-16T03:25:47.817Z,14.20
2018-07-16T03:28:16.200Z,13.90
2018-07-16T03:30:44.644Z,13.80
2018-07-16T03:33:13.032Z,13.90
2018-07-16T03:35:41.409Z,13.80
2018-07-16T03:38:09.824Z,13.80
2018-07-16T03:40:38.570Z,13.90
2018-07-16T03:43:07.681Z,13.90
2018-07-16T03:45:36.058Z,13.90
2018-07-16T03:48:04.478Z,13.80
2018-07-16T03:50:33.092Z,13.80
2018-07-16T03:53:01.490Z,13.80
2018-07-16T03:55:29.921Z,13.90
2018-07-16T03:57:58.344Z,13.90
2018-07-16T04:00:26.771Z,14.00
2018-07-16T04:02:55.145Z,14.00
2018-07-16T04:05:23.789Z,14.10
2018-07-16T04:07:52.167Z,14.10
2018-07-16T04:10:20.538Z,14.20
2018-07-16T04:12:48.950Z,14.30
2018-07-16T04:15:17.348Z,14.40
2018-07-16T04:17:45.758Z,14.40
2018-07-16T04:20:14.362Z,14.40
2018-07-16T04:22:42.756Z,14.50
2018-07-16T04:25:11.256Z,14.70
2018-07-16T04:27:39.662Z,14.60
2018-07-16T04:30:08.068Z,14.70
2018-07-16T04:32:36.534Z,15.00
2018-07-16T04:35:05.135Z,15.00
2018-07-16T04:37:33.617Z,15.20
2018-07-16T04:40:02.120Z,15.30
2018-07-16T04:42:30.505Z,15.70
2018-07-16T04:44:58.876Z,15.90
2018-07-16T04:47:27.263Z,15.90
2018-07-16T04:49:55.680Z,15.80
2018-07-16T04:52:24.093Z,16.10
2018-07-16T04:54:52.500Z,16.30
2018-07-16T04:57:20.888Z,16.40
2018-07-16T04:59:49.273Z,16.40
2018-07-16T05:02:17.912Z,16.30
2018-07-16T05:04:46.293Z,16.30
2018-07-16T05:07:14.734Z,16.70
2018-07-16T05:09:43.373Z,17.30
2018-07-16T05:12:11.781Z,18.60
2018-07-16T05:14:40.183Z,20.20
2018-07-16T05:17:08.600Z,21.30
2018-07-16T05:19:36.973Z,22.70
2018-07-16T05:24:33.644Z,24.20
2018-07-16T05:29:30.376Z,25.20
2018-07-16T05:31:58.854Z,25.40
2018-07-16T05:34:27.136Z,25.50
2018-07-16T05:36:56.583Z,25.70
2018-07-16T05:39:24.967Z,26.10
2018-07-16T05:41:53.368Z,26.40
2018-07-16T05:44:22.177Z,26.60
2018-07-16T05:46:50.632Z,26.70
2018-07-16T05:49:19.035Z,27.10
2018-07-16T05:51:47.721Z,26.50
2018-07-16T05:54:16.141Z,25.30
2018-07-16T05:56:44.544Z,23.80
2018-07-16T05:59:12.932Z,22.50
2018-07-16T06:01:41.369Z,21.70
2018-07-16T06:04:09.857Z,21.20
2018-07-16T06:06:38.264Z,20.80
2018-07-16T06:09:07.410Z,20.50
2018-07-16T06:11:35.872Z,20.40
2018-07-16T06:14:04.334Z,20.30
2018-07-16T06:16:32.739Z,20.30
2018-07-16T06:19:01.385Z,20.20
2018-07-16T06:21:29.904Z,20.40
2018-07-16T06:23:58.335Z,20.40
2018-07-16T06:28:54.820Z,20.70
2018-07-16T06:31:23.188Z,20.90
2018-07-16T06:33:51.661Z,20.90
2018-07-16T06:36:20.333Z,20.90
2018-07-16T06:38:48.747Z,21.10
2018-07-16T06:41:17.226Z,21.20
2018-07-16T06:43:45.590Z,21.20
2018-07-16T06:46:14.012Z,21.30
2018-07-16T06:48:42.474Z,21.30
2018-07-16T06:51:11.049Z,21.30
2018-07-16T06:53:39.574Z,21.40
2018-07-16T06:56:08.132Z,21.50
2018-07-16T06:58:36.541Z,21.60
2018-07-16T07:01:04.961Z,21.70
2018-07-16T07:03:33.657Z,21.80
2018-07-16T07:06:02.173Z,21.80
2018-07-16T07:08:30.545Z,21.90
2018-07-16T07:10:58.982Z,22.00
2018-07-16T07:13:27.376Z,22.10
2018-07-16T07:15:55.777Z,22.30
2018-07-16T07:18:24.206Z,22.30
2018-07-16T07:20:52.681Z,22.40
2018-07-16T07:23:21.067Z,22.50
2018-07-16T07:25:49.745Z,22.50
2018-07-16T07:28:18.299Z,22.50
2018-07-16T07:30:46.749Z,22.60
2018-07-16T07:33:15.248Z,22.70
2018-07-16T07:35:43.767Z,22.80
2018-07-16T07:38:12.132Z,22.80
2018-07-16T07:40:40.621Z,22.80
2018-07-16T07:43:12.314Z,22.90
2018-07-16T07:45:40.994Z,23.00
2018-07-16T07:48:09.401Z,23.20
2018-07-16T07:50:37.893Z,23.20
2018-07-16T07:53:06.733Z,23.30
2018-07-16T07:55:35.379Z,23.20
2018-07-16T07:58:03.861Z,23.40
2018-07-16T08:00:32.317Z,23.60
2018-07-16T08:03:01.384Z,23.70
2018-07-16T08:05:29.820Z,23.80
2018-07-16T08:07:58.265Z,23.80
2018-07-16T08:10:26.721Z,23.90
2018-07-16T08:12:55.172Z,24.00
2018-07-16T08:15:23.619Z,24.20
2018-07-16T08:17:52.061Z,24.30
2018-07-16T08:20:20.512Z,24.30
2018-07-16T08:22:48.935Z,24.30
2018-07-16T08:25:17.344Z,24.40
2018-07-16T08:27:45.797Z,24.40
2018-07-16T08:30:14.224Z,24.40
2018-07-16T08:32:47.379Z,24.50
2018-07-16T08:35:15.976Z,24.70
2018-07-16T08:37:44.404Z,24.80
2018-07-16T08:40:13.008Z,24.80
2018-07-16T08:42:41.449Z,24.90
2018-07-16T08:45:09.913Z,24.90
2018-07-16T08:47:38.348Z,25.00
2018-07-16T08:50:06.858Z,25.20
2018-07-16T08:52:35.332Z,25.50
2018-07-16T08:55:03.828Z,25.60
2018-07-16T08:57:32.257Z,25.50
2018-07-16T09:02:28.833Z,25.90
2018-07-16T09:04:57.257Z,26.00
2018-07-16T09:07:25.869Z,26.10
2018-07-16T09:09:54.300Z,26.20
2018-07-16T09:12:22.703Z,26.30
2018-07-16T09:14:51.150Z,26.30
2018-07-16T09:17:19.640Z,26.50
2018-07-16T09:19:48.260Z,26.90
2018-07-16T09:22:16.711Z,27.60
2018-07-16T09:24:45.130Z,28.30
2018-07-16T09:27:13.584Z,28.60
2018-07-16T09:29:41.992Z,29.60
2018-07-16T09:32:11.192Z,31.20
2018-07-16T09:34:39.735Z,32.20
2018-07-16T09:37:08.188Z,32.20
2018-07-16T09:39:36.672Z,32.10
2018-07-16T09:42:05.294Z,32.90
2018-07-16T09:44:39.956Z,33.40
2018-07-16T09:47:08.695Z,33.60
2018-07-16T09:49:37.134Z,33.90
2018-07-16T09:52:05.579Z,34.50
2018-07-16T09:57:02.115Z,34.90
2018-07-16T09:59:30.797Z,35.40
2018-07-16T10:02:04.514Z,35.60
2018-07-16T10:04:32.955Z,34.80
2018-07-16T10:07:01.764Z,34.60
2018-07-16T10:09:30.161Z,34.60
2018-07-16T10:14:26.901Z,35.90
2018-07-16T10:16:55.306Z,35.40
2018-07-16T10:19:23.733Z,35.50
2018-07-16T10:21:52.225Z,35.80
2018-07-16T10:24:20.653Z,36.40
2018-07-16T10:26:49.101Z,36.60
2018-07-16T10:29:17.504Z,36.60
2018-07-16T10:31:45.935Z,37.50
2018-07-16T10:34:14.367Z,37.70
2018-07-16T10:36:42.804Z,37.30
2018-07-16T10:39:11.232Z,37.60
2018-07-16T10:41:39.761Z,37.10
2018-07-16T10:44:08.235Z,37.00
2018-07-16T10:46:36.648Z,36.70
2018-07-16T10:51:33.200Z,37.70
2018-07-16T10:56:29.748Z,37.20
2018-07-16T10:58:58.196Z,37.30
2018-07-16T11:01:26.657Z,37.50
2018-07-16T11:03:55.104Z,37.10
2018-07-16T11:06:24.552Z,37.10
2018-07-16T11:08:54.373Z,37.30
2018-07-16T11:11:23.155Z,37.60
2018-07-16T11:13:51.857Z,37.90
2018-07-16T11:16:20.446Z,37.50
2018-07-16T11:18:48.870Z,37.10
2018-07-16T11:21:17.296Z,35.90
2018-07-16T11:23:45.742Z,35.50
2018-07-16T11:26:14.137Z,35.50
2018-07-16T11:28:42.585Z,36.00
2018-07-16T11:31:10.992Z,35.20
2018-07-16T11:33:39.500Z,36.00
2018-07-16T11:36:07.937Z,36.40
2018-07-16T11:38:36.391Z,36.60
2018-07-16T11:41:04.821Z,37.20
2018-07-16T11:43:33.250Z,35.50
2018-07-16T11:46:01.683Z,35.50
2018-07-16T11:48:37.674Z,36.20
2018-07-16T11:51:12.204Z,36.50
2018-07-16T11:53:40.640Z,36.80
2018-07-16T11:56:09.051Z,36.40
2018-07-16T11:58:37.460Z,35.90
2018-07-16T12:01:06.836Z,36.40
2018-07-16T12:03:35.585Z,37.00
2018-07-16T12:06:08.112Z,35.80
2018-07-16T12:08:36.758Z,35.60
2018-07-16T12:11:05.161Z,35.80
2018-07-16T12:13:33.582Z,36.60
2018-07-16T12:16:01.981Z,36.90
2018-07-16T12:18:30.392Z,37.20
2018-07-16T12:20:58.809Z,37.30
2018-07-16T12:23:27.180Z,36.90
2018-07-16T12:25:56.240Z,36.70
2018-07-16T12:28:24.685Z,36.20
2018-07-16T12:30:53.111Z,36.50
2018-07-16T12:33:21.504Z,36.50
2018-07-16T12:35:49.925Z,36.00
2018-07-16T12:38:18.320Z,36.30
2018-07-16T12:40:46.777Z,36.60
2018-07-16T12:43:15.184Z,36.30
2018-07-16T12:45:43.585Z,35.50
2018-07-16T12:50:40.102Z,35.50
2018-07-16T12:53:08.485Z,34.80
2018-07-16T12:55:37.054Z,35.40
2018-07-16T12:58:05.478Z,35.10
2018-07-16T13:00:33.872Z,35.00
2018-07-16T13:03:03.196Z,35.20
2018-07-16T13:05:33.006Z,35.00
2018-07-16T13:08:01.637Z,35.10
2018-07-16T13:10:30.171Z,35.10
2018-07-16T13:12:59.249Z,35.10
2018-07-16T13:15:27.801Z,34.80
2018-07-16T13:17:56.205Z,34.50
2018-07-16T13:20:24.645Z,34.70
2018-07-16T13:22:53.393Z,34.30
2018-07-16T13:25:23.069Z,34.20
2018-07-16T13:27:51.980Z,34.40
2018-07-16T13:30:22.792Z,33.60
2018-07-16T13:35:19.388Z,33.60
2018-07-16T13:37:47.817Z,33.60
2018-07-16T13:40:16.224Z,32.70
2018-07-16T13:42:44.843Z,33.00
2018-07-16T13:45:14.268Z,33.40
2018-07-16T13:47:42.656Z,33.70
2018-07-16T13:50:11.324Z,33.40
2018-07-16T13:52:40.764Z,33.30
2018-07-16T13:55:09.096Z,33.20
2018-07-16T14:00:06.168Z,32.10
2018-07-16T14:02:34.843Z,32.30
2018-07-16T14:05:03.291Z,32.60
2018-07-16T14:07:31.696Z,32.50
2018-07-16T14:10:00.122Z,32.40
2018-07-16T14:12:28.534Z,32.10
2018-07-16T14:14:56.909Z,31.90
2018-07-16T14:17:25.327Z,32.20
2018-07-16T14:22:21.944Z,32.70
2018-07-16T14:24:50.441Z,32.80
2018-07-16T14:27:18.847Z,32.40
2018-07-16T14:29:47.503Z,32.00
2018-07-16T14:32:15.915Z,31.50
2018-07-16T14:34:44.338Z,31.10
2018-07-16T14:37:12.850Z,31.00
2018-07-16T14:39:41.317Z,30.80
2018-07-16T14:42:09.672Z,31.20
2018-07-16T14:44:38.093Z,31.50
2018-07-16T14:47:06.554Z,31.90
2018-07-16T14:49:34.941Z,32.20
2018-07-16T14:52:03.354Z,32.10
2018-07-16T14:54:31.928Z,32.30
2018-07-16T14:57:00.414Z,32.00
2018-07-16T14:59:28.817Z,31.70
2018-07-16T15:01:57.239Z,31.20
2018-07-16T15:04:25.636Z,31.10
2018-07-16T15:06:54.302Z,31.00
2018-07-16T15:09:22.694Z,31.10
2018-07-16T15:14:19.283Z,31.50
2018-07-16T15:16:47.680Z,31.60
2018-07-16T15:19:16.072Z,31.50
2018-07-16T15:21:44.641Z,31.60
2018-07-16T15:24:12.876Z,31.70
2018-07-16T15:26:41.275Z,31.70
2018-07-16T15:29:09.721Z,31.90
2018-07-16T15:31:38.120Z,31.80
2018-07-16T15:34:07.024Z,32.10
2018-07-16T15:36:35.581Z,32.30
2018-07-16T15:41:32.827Z,32.70
2018-07-16T15:46:29.388Z,32.10
2018-07-16T15:51:26.067Z,31.90
2018-07-16T15:53:54.500Z,31.60
2018-07-16T15:56:22.946Z,31.70
2018-07-16T15:58:51.461Z,31.70
2018-07-16T16:01:19.877Z,31.80
2018-07-16T16:03:48.305Z,31.90
2018-07-16T16:06:16.724Z,31.90
2018-07-16T16:08:45.144Z,31.80
2018-07-16T16:11:13.661Z,31.50
2018-07-16T16:13:42.108Z,31.30
2018-07-16T16:16:10.517Z,31.30
2018-07-16T16:18:38.980Z,31.20
2018-07-16T16:21:07.500Z,31.20
2018-07-16T16:23:35.929Z,31.10
2018-07-16T16:26:04.382Z,31.00
2018-07-16T16:28:32.826Z,30.70
2018-07-16T16:31:01.247Z,30.50
2018-07-16T16:33:30.185Z,30.50
2018-07-16T16:38:26.679Z,30.50
2018-07-16T16:40:55.312Z,30.60
2018-07-16T16:43:23.727Z,30.70
2018-07-16T16:45:52.128Z,30.60
2018-07-16T16:48:20.598Z,30.50
2018-07-16T16:50:49.041Z,30.50
2018-07-16T16:53:17.488Z,30.40
2018-07-16T16:55:45.920Z,30.40
2018-07-16T16:58:14.366Z,30.40
2018-07-16T17:00:42.793Z,30.50
2018-07-16T17:03:11.196Z,30.50
2018-07-16T17:05:39.850Z,30.50
2018-07-16T17:08:08.253Z,30.50
2018-07-16T17:10:36.691Z,30.50
2018-07-16T17:13:05.118Z,30.50
2018-07-16T17:15:33.556Z,30.40
2018-07-16T17:20:30.093Z,30.20
2018-07-16T17:22:58.769Z,30.20
2018-07-16T17:25:27.195Z,30.20
2018-07-16T17:27:55.636Z,30.20
2018-07-16T17:30:24.042Z,30.10
2018-07-16T17:32:52.447Z,30.00
2018-07-16T17:35:20.908Z,29.90
2018-07-16T17:37:49.317Z,29.80
2018-07-16T17:40:17.929Z,29.60
2018-07-16T17:42:46.292Z,29.60
2018-07-16T17:45:14.750Z,29.70
2018-07-16T17:47:43.162Z,29.60
2018-07-16T17:50:11.557Z,29.60
2018-07-16T17:52:39.969Z,29.60
2018-07-16T17:55:08.393Z,29.50
2018-07-16T17:57:37.092Z,29.50
2018-07-16T18:00:05.546Z,29.40
2018-07-16T18:02:33.984Z,29.30
2018-07-16T18:05:02.522Z,29.20
2018-07-16T18:07:30.949Z,29.20
2018-07-16T18:09:59.358Z,29.20
2018-07-16T18:12:27.822Z,29.10
2018-07-16T18:14:56.248Z,29.00
2018-07-16T18:19:52.822Z,28.90
2018-07-16T18:27:18.520Z,28.80
2018-07-16T18:29:47.216Z,28.70
2018-07-16T18:32:15.853Z,28.60
2018-07-16T18:34:44.256Z,28.50
2018-07-16T18:37:12.708Z,28.50
2018-07-16T18:39:41.216Z,28.40
2018-07-16T18:42:09.666Z,28.30
2018-07-16T18:44:38.130Z,28.20
2018-07-16T18:47:06.809Z,28.10
2018-07-16T18:49:35.286Z,28.00
2018-07-16T18:52:03.777Z,27.90
2018-07-16T18:54:32.894Z,27.80
2018-07-16T18:57:01.300Z,27.70
2018-07-16T18:59:29.847Z,27.50
2018-07-16T19:01:58.312Z,27.40
2018-07-16T19:04:26.841Z,27.30
2018-07-16T19:06:59.665Z,27.10
2018-07-16T19:09:28.115Z,27.00
2018-07-16T19:11:56.570Z,26.90
2018-07-16T19:14:24.994Z,26.70
2018-07-16T19:16:53.438Z,26.60
2018-07-16T19:19:22.130Z,26.50
2018-07-16T19:21:50.849Z,26.40
2018-07-16T19:24:19.584Z,26.30
2018-07-16T19:26:49.473Z,26.30
2018-07-16T19:29:18.088Z,26.10
2018-07-16T19:31:46.673Z,26.00
2018-07-16T19:34:15.183Z,25.90
2018-07-16T19:36:43.615Z,25.70
2018-07-16T19:39:12.870Z,25.60
2018-07-16T19:44:09.696Z,25.40
2018-07-16T19:46:38.251Z,25.20
2018-07-16T19:49:06.831Z,25.10
2018-07-16T19:51:35.514Z,24.90
2018-07-16T19:54:04.009Z,24.80
2018-07-16T19:56:32.397Z,24.60
2018-07-16T19:59:00.982Z,24.60
2018-07-16T20:01:29.403Z,24.50
2018-07-16T20:03:58.038Z,24.40
2018-07-16T20:06:26.481Z,24.40
2018-07-16T20:08:54.886Z,24.30
2018-07-16T20:11:23.467Z,24.30
2018-07-16T20:13:52.084Z,24.30
2018-07-16T20:16:20.549Z,24.20
2018-07-16T20:18:49.076Z,24.20
2018-07-16T20:21:17.657Z,24.10
2018-07-16T20:23:46.005Z,23.90
2018-07-16T20:26:14.594Z,23.80
2018-07-16T20:28:43.045Z,23.60
2018-07-16T20:31:11.471Z,23.50
2018-07-16T20:33:40.069Z,23.40
2018-07-16T20:36:08.534Z,23.20
2018-07-16T20:38:36.960Z,23.10
2018-07-16T20:41:05.449Z,23.00
2018-07-16T20:43:33.967Z,22.80
2018-07-16T20:46:02.404Z,22.70
2018-07-16T20:48:30.841Z,22.60
2018-07-16T20:50:59.444Z,22.50
2018-07-16T20:53:27.900Z,22.30
2018-07-16T20:55:56.356Z,22.20
2018-07-16T20:58:24.805Z,22.20
2018-07-16T21:00:53.232Z,22.00
2018-07-16T21:03:21.676Z,22.00
2018-07-16T21:05:50.131Z,21.90
2018-07-16T21:08:18.553Z,21.80
2018-07-16T21:10:47.284Z,21.80
2018-07-16T21:13:15.685Z,21.70
2018-07-16T21:15:44.117Z,21.60
2018-07-16T21:18:12.523Z,21.50
2018-07-16T21:20:40.994Z,21.40
2018-07-16T21:23:09.531Z,21.20
2018-07-16T21:25:37.966Z,21.10
2018-07-16T21:28:06.428Z,21.00
2018-07-16T21:30:34.893Z,21.10
2018-07-16T21:33:03.282Z,21.00
2018-07-16T21:35:31.796Z,21.10
2018-07-16T21:38:00.185Z,21.10
2018-07-16T21:40:28.622Z,21.10
2018-07-16T21:42:57.064Z,21.00
2018-07-16T21:45:25.731Z,21.00
2018-07-16T21:47:54.337Z,21.00
2018-07-16T21:50:22.740Z,20.90
2018-07-16T21:52:51.142Z,20.80
2018-07-16T21:55:19.724Z,20.70
2018-07-16T21:57:48.149Z,20.70
2018-07-16T22:00:28.030Z,20.50
2018-07-16T22:02:57.189Z,20.50
2018-07-16T22:05:26.877Z,20.50
2018-07-16T22:07:56.333Z,20.50
2018-07-16T22:10:25.892Z,20.40
2018-07-16T22:12:55.106Z,20.40
2018-07-16T22:15:25.417Z,20.30
2018-07-16T22:17:55.030Z,20.30
2018-07-16T22:20:24.648Z,20.40
2018-07-16T22:22:53.722Z,20.40
2018-07-16T22:25:22.909Z,20.40
2018-07-16T22:27:51.383Z,20.40
2018-07-16T22:30:20.079Z,20.50
2018-07-16T22:32:48.786Z,20.50
2018-07-16T22:35:17.189Z,20.50
2018-07-16T22:37:45.611Z,20.60
2018-07-16T22:40:14.249Z,20.60
2018-07-16T22:42:42.677Z,20.60
2018-07-16T22:45:11.108Z,20.40
2018-07-16T22:47:39.524Z,20.30
2018-07-16T22:50:08.085Z,20.30
2018-07-16T22:52:36.749Z,20.50
2018-07-16T22:55:05.173Z,20.60
2018-07-16T22:57:33.622Z,20.70
2018-07-16T23:00:02.050Z,20.80
2018-07-16T23:02:30.457Z,21.00
2018-07-16T23:04:58.898Z,21.10
2018-07-16T23:07:27.297Z,21.20
2018-07-16T23:09:55.712Z,21.20
2018-07-16T23:12:24.144Z,21.20
2018-07-16T23:14:52.563Z,21.20
2018-07-16T23:17:20.992Z,21.20
2018-07-16T23:19:49.486Z,21.10
2018-07-16T23:22:17.876Z,21.10
2018-07-16T23:24:46.287Z,21.10
2018-07-16T23:27:14.715Z,21.00
2018-07-16T23:29:43.332Z,21.00
2018-07-16T23:32:11.774Z,21.00
2018-07-16T23:34:40.165Z,21.00
2018-07-16T23:37:08.597Z,21.00
2018-07-16T23:39:36.998Z,21.00
2018-07-16T23:42:05.401Z,21.00
2018-07-16T23:44:34.017Z,21.10
2018-07-16T23:47:02.429Z,21.10
2018-07-16T23:49:30.858Z,21.10
2018-07-16T23:51:59.251Z,21.10
2018-07-16T23:54:27.653Z,21.00
2018-07-16T23:56:56.300Z,21.00
2018-07-16T23:59:24.703Z,21.00
